地図

経路データ

SID SEASON NUMBER BASIN SUBBASIN NAME ISO_TIME NATURE LAT LON WMO_WIND WMO_PRES WMO_AGENCY TRACK_TYPE DIST2LAND LANDFALL IFLAG USA_AGENCY USA_ATCF_ID USA_LAT USA_LON USA_RECORD USA_STATUS USA_WIND USA_PRES USA_SSHS USA_R34_NE USA_R34_SE USA_R34_SW USA_R34_NW USA_R50_NE USA_R50_SE USA_R50_SW USA_R50_NW USA_R64_NE USA_R64_SE USA_R64_SW USA_R64_NW USA_POCI USA_ROCI USA_RMW USA_EYE TOKYO_LAT TOKYO_LON TOKYO_GRADE TOKYO_WIND TOKYO_PRES TOKYO_R50_DIR TOKYO_R50_LONG TOKYO_R50_SHORT TOKYO_R30_DIR TOKYO_R30_LONG TOKYO_R30_SHORT TOKYO_LAND CMA_LAT CMA_LON CMA_CAT CMA_WIND CMA_PRES HKO_LAT HKO_LON HKO_CAT HKO_WIND HKO_PRES NEWDELHI_LAT NEWDELHI_LON NEWDELHI_GRADE NEWDELHI_WIND NEWDELHI_PRES NEWDELHI_CI NEWDELHI_DP NEWDELHI_POCI REUNION_LAT REUNION_LON REUNION_TYPE REUNION_WIND REUNION_PRES REUNION_TNUM REUNION_CI REUNION_RMW REUNION_R34_NE REUNION_R34_SE REUNION_R34_SW REUNION_R34_NW REUNION_R50_NE REUNION_R50_SE REUNION_R50_SW REUNION_R50_NW REUNION_R64_NE REUNION_R64_SE REUNION_R64_SW REUNION_R64_NW BOM_LAT BOM_LON BOM_TYPE BOM_WIND BOM_PRES BOM_TNUM BOM_CI BOM_RMW BOM_R34_NE BOM_R34_SE BOM_R34_SW BOM_R34_NW BOM_R50_NE BOM_R50_SE BOM_R50_SW BOM_R50_NW BOM_R64_NE BOM_R64_SE BOM_R64_SW BOM_R64_NW BOM_ROCI BOM_POCI BOM_EYE BOM_POS_METHOD BOM_PRES_METHOD NADI_LAT NADI_LON NADI_CAT NADI_WIND NADI_PRES WELLINGTON_LAT WELLINGTON_LON WELLINGTON_WIND WELLINGTON_PRES DS824_LAT DS824_LON DS824_STAGE DS824_WIND DS824_PRES TD9636_LAT TD9636_LON TD9636_STAGE TD9636_WIND TD9636_PRES TD9635_LAT TD9635_LON TD9635_WIND TD9635_PRES TD9635_ROCI NEUMANN_LAT NEUMANN_LON NEUMANN_CLASS NEUMANN_WIND NEUMANN_PRES MLC_LAT MLC_LON MLC_CLASS MLC_WIND MLC_PRES USA_GUST BOM_GUST BOM_GUST_PER REUNION_GUST REUNION_GUST_PER USA_SEAHGT USA_SEARAD_NE USA_SEARAD_SE USA_SEARAD_SW USA_SEARAD_NW STORM_SPEED STORM_DIR
2021057S14101 2021 13 SI WA MARIAN 2021-02-26 00:00:00 NR -14.0000 100.800 PROVISIONAL 939 939 O_____________ tcvitals SI222021 -14.0000 100.800 35 996 0 20 70 70 20 1006 350 70 24 258
2021057S14101 2021 13 SI WA MARIAN 2021-02-26 03:00:00 NR -14.2567 99.5755 PROVISIONAL 1039 1039 P_____________ SI222021 -14.2567 99.5755 43 994 0 55 115 98 40 1005 340 65 23 257
2021057S14101 2021 13 SI WA MARIAN 2021-02-26 06:00:00 NR -14.5000 98.5000 PROVISIONAL 1131 1131 O_____________ tcvitals SI222021 -14.5000 98.5000 51 993 0 90 160 126 60 1004 330 60 19 256
2021057S14101 2021 13 SI WA MARIAN 2021-02-26 09:00:00 NR -14.7092 97.6751 PROVISIONAL 1205 1205 P_____________ SI222021 -14.7092 97.6751 55 990 0 97 165 140 67 1004 332 50 15 258
2021057S14101 2021 13 SI WA MARIAN 2021-02-26 12:00:00 NR -14.8000 97.0000 PROVISIONAL 1266 1266 O_____________ tcvitals SI222021 -14.8000 97.0000 60 987 0 105 170 155 75 1004 335 40 13 273
2021057S14101 2021 13 SI WA MARIAN 2021-02-26 15:00:00 NR -14.6349 96.3117 PROVISIONAL 1307 1307 P_____________ SI222021 -14.6349 96.3117 60 986 0 110 148 137 97 1003 282 35 13 283
2021057S14101 2021 13 SI WA MARIAN 2021-02-26 18:00:00 NR -14.5000 95.7000 PROVISIONAL 1349 1349 O_____________ tcvitals SI222021 -14.5000 95.7000 60 985 0 115 126 120 120 1003 230 30 11 267
2021057S14101 2021 13 SI WA MARIAN 2021-02-26 21:00:00 NR -14.6974 95.1554 PROVISIONAL 1405 1405 P_____________ SI222021 -14.6974 95.1554 62 983 0 115 126 120 120 1003 230 27 11 243
2021057S14101 2021 13 SI WA MARIAN 2021-02-27 00:00:00 NR -15.0000 94.7000 PROVISIONAL 1468 1468 O_____________ tcvitals SI222021 -15.0000 94.7000 64 982 1 115 126 120 120 1003 230 25 9 239
2021057S14101 2021 13 SI WA MARIAN 2021-02-27 03:00:00 NR -15.1773 94.3272 PROVISIONAL 1516 1516 P_____________ SI222021 -15.1773 94.3272 64 981 1 135 143 140 142 1003 235 22 8 239
2021057S14101 2021 13 SI WA MARIAN 2021-02-27 06:00:00 NR -15.4000 94.0000 PROVISIONAL 1555 1555 O_____________ tcvitals SI222021 -15.4000 94.0000 64 980 1 155 160 160 165 1003 240 20 9 226
2021057S14101 2021 13 SI WA MARIAN 2021-02-27 09:00:00 NR -15.7999 93.6651 PROVISIONAL 1608 1608 P_____________ SI222021 -15.7999 93.6651 64 979 1 157 160 160 165 1002 237 20 11 220
2021057S14101 2021 13 SI WA MARIAN 2021-02-27 12:00:00 NR -16.2000 93.3000 PROVISIONAL 1669 1669 O_____________ tcvitals SI222021 -16.2000 93.3000 64 979 1 160 160 160 165 1002 235 20 10 232
2021057S14101 2021 13 SI WA MARIAN 2021-02-27 15:00:00 NR -16.4377 92.8274 PROVISIONAL 1725 1725 P_____________ SI222021 -16.4377 92.8274 69 975 1 160 160 160 162 1002 235 17 10 245
2021057S14101 2021 13 SI WA MARIAN 2021-02-27 18:00:00 NR -16.6000 92.4000 PROVISIONAL 1773 1773 O_____________ tcvitals SI222021 -16.6000 92.4000 74 972 1 160 160 160 160 1002 235 14 7 243
2021057S14101 2021 13 SI WA MARIAN 2021-02-27 21:00:00 NR -16.7497 92.1848 PROVISIONAL 1796 1796 P_____________ SI222021 -16.7497 92.1848 77 970 1 160 155 155 160 1002 235 14 5 232
2021057S14101 2021 13 SI WA MARIAN 2021-02-28 00:00:00 NR -16.9000 92.0000 PROVISIONAL 1827 1827 O_____________ tcvitals SI222021 -16.9000 92.0000 80 969 1 160 150 150 160 1002 235 14 7 236
2021057S14101 2021 13 SI WA MARIAN 2021-02-28 03:00:00 NR -17.1152 91.6202 PROVISIONAL 1873 1873 P_____________ SI222021 -17.1152 91.6202 82 967 1 160 150 150 160 1002 235 14 8 239
2021057S14101 2021 13 SI WA MARIAN 2021-02-28 06:00:00 NR -17.3000 91.3000 PROVISIONAL 1911 1911 O_____________ tcvitals SI222021 -17.3000 91.3000 84 966 2 160 150 150 160 1003 235 14 4 233
2021057S14101 2021 13 SI WA MARIAN 2021-02-28 09:00:00 NR -17.3498 91.2923 PROVISIONAL 1911 1911 P_____________ SI222021 -17.3498 91.2923 91 959 2 160 150 150 160 1002 230 17 1 0
2021057S14101 2021 13 SI WA MARIAN 2021-02-28 12:00:00 NR -17.4000 91.3000 PROVISIONAL 1919 1919 O_____________ tcvitals SI222021 -17.4000 91.3000 99 952 3 160 150 150 160 1002 225 20 4 225
2021057S14101 2021 13 SI WA MARIAN 2021-02-28 15:00:00 NR -17.6077 91.0228 PROVISIONAL 1957 1957 P_____________ SI222021 -17.6077 91.0228 96 954 3 160 150 150 160 1002 225 20 7 235
2021057S14101 2021 13 SI WA MARIAN 2021-02-28 18:00:00 NR -17.8000 90.7000 PROVISIONAL 1995 1995 O_____________ tcvitals SI222021 -17.8000 90.7000 93 956 2 160 150 150 160 1002 225 20 5 245
2021057S14101 2021 13 SI WA MARIAN 2021-02-28 21:00:00 NR -17.8148 90.5498 PROVISIONAL 2010 2010 P_____________ SI222021 -17.8148 90.5498 91 958 2 160 150 150 160 1002 225 20 3 270
2021057S14101 2021 13 SI WA MARIAN 2021-03-01 00:00:00 NR -17.8000 90.4000 PROVISIONAL 2017 2017 O_____________ tcvitals SI222021 -17.8000 90.4000 89 960 2 160 150 150 160 1002 225 20 4 262
2021057S14101 2021 13 SI WA MARIAN 2021-03-01 03:00:00 NR -17.8776 90.1001 PROVISIONAL 2046 2046 P_____________ SI222021 -17.8776 90.1001 89 961 2 160 152 150 155 1003 227 20 6 251
2021057S14101 2021 13 SI MM MARIAN 2021-03-01 06:00:00 NR -18.0000 89.8000 PROVISIONAL 2076 2076 O_____________ tcvitals SI222021 -18.0000 89.8000 89 963 2 160 155 150 150 1005 230 20 6 240
2021057S14101 2021 13 SI MM MARIAN 2021-03-01 09:00:00 NR -18.1574 89.5900 PROVISIONAL 2107 2107 P_____________ SI222021 -18.1574 89.5900 86 964 2 157 157 152 147 1004 227 20 4 223
2021057S14101 2021 13 SI MM MARIAN 2021-03-01 12:00:00 NR -18.3000 89.5000 PROVISIONAL 2122 2115 O_____________ tcvitals SI222021 -18.3000 89.5000 84 966 2 155 160 155 145 1004 225 20 2 173
2021057S14101 2021 13 SI MM MARIAN 2021-03-01 15:00:00 NR -18.3575 89.5924 PROVISIONAL 2123 2116 P_____________ SI222021 -18.3575 89.5924 86 963 2 155 160 155 145 1004 225 20 2 118
2021057S14101 2021 13 SI MM MARIAN 2021-03-01 18:00:00 NR -18.4000 89.7000 PROVISIONAL 2116 2116 O_____________ tcvitals SI222021 -18.4000 89.7000 89 961 2 155 160 155 145 1004 225 20 2 0
2021057S14101 2021 13 SI MM MARIAN 2021-03-01 21:00:00 NR -18.5075 89.6076 PROVISIONAL 2132 2132 P_____________ SI222021 -18.5075 89.6076 89 962 2 157 162 152 132 1005 290 18 3 224
2021057S14101 2021 13 SI MM MARIAN 2021-03-02 00:00:00 NR -18.6000 89.5000 PROVISIONAL 2147 2147 O_____________ tcvitals SI222021 -18.6000 89.5000 89 964 2 160 165 150 120 1007 355 17 1 217
2021057S14101 2021 13 SI MM MARIAN 2021-03-02 03:00:00 NR -18.6075 89.5200 PROVISIONAL 2147 2140 P_____________ SI222021 -18.6075 89.5200 89 964 2 162 162 150 117 1007 357 17 1 90
2021057S14101 2021 13 SI MM MARIAN 2021-03-02 06:00:00 NR -18.6000 89.6000 PROVISIONAL 2140 2133 O_____________ tcvitals SI222021 -18.6000 89.6000 89 964 2 165 160 150 115 1007 360 17 1 109
2021057S14101 2021 13 SI MM MARIAN 2021-03-02 09:00:00 NR -18.6499 89.6550 PROVISIONAL 2133 2133 P_____________ SI222021 -18.6499 89.6550 89 960 2 162 157 150 127 1005 285 17 2 118
2021057S14101 2021 13 SI MM MARIAN 2021-03-02 12:00:00 NR -18.7000 89.8000 PROVISIONAL 2134 2109 O_____________ tcvitals SI222021 -18.7000 89.8000 89 956 2 160 155 150 140 1003 210 17 5 95
2021057S14101 2021 13 SI WA MARIAN 2021-03-02 15:00:00 NR -18.6927 90.1351 PROVISIONAL 2109 2075 P_____________ SI222021 -18.6927 90.1351 86 962 2 155 150 125 137 1005 270 15 7 90
2021057S14101 2021 13 SI WA MARIAN 2021-03-02 18:00:00 NR -18.7000 90.5000 PROVISIONAL 2075 2059 O_____________ tcvitals SI222021 -18.7000 90.5000 84 968 2 150 145 100 135 1007 330 14 6 100
2021057S14101 2021 13 SI WA MARIAN 2021-03-02 21:00:00 NR -18.7849 90.7150 PROVISIONAL 2066 2056 P_____________ SI222021 -18.7849 90.7150 82 968 1 145 135 95 125 1005 272 13 4 118
2021057S14101 2021 13 SI WA MARIAN 2021-03-03 00:00:00 NR -18.9000 90.9000 PROVISIONAL 2056 2047 O_____________ tcvitals SI222021 -18.9000 90.9000 80 969 1 140 126 90 115 1003 215 12 4 119
2021057S14101 2021 13 SI WA MARIAN 2021-03-03 03:00:00 NR -18.9999 91.1276 PROVISIONAL 2047 2031 P_____________ SI222021 -18.9999 91.1276 72 972 1 150 130 110 130 1002 207 13 5 113
2021057S14101 2021 13 SI WA MARIAN 2021-03-03 06:00:00 NR -19.1000 91.4000 PROVISIONAL 2031 2014 O_____________ tcvitals SI222021 -19.1000 91.4000 64 975 1 160 135 130 145 1002 200 14 6 108
2021057S14101 2021 13 SI WA MARIAN 2021-03-03 09:00:00 NR -19.1850 91.7351 PROVISIONAL 2014 1991 P_____________ SI222021 -19.1850 91.7351 57 980 0 132 127 115 117 1002 205 14 7 107
2021057S14101 2021 13 SI WA MARIAN 2021-03-03 12:00:00 NR -19.3000 92.1000 PROVISIONAL 1991 1968 O_____________ tcvitals SI222021 -19.3000 92.1000 51 985 0 105 120 100 90 1003 210 14 7 111
2021057S14101 2021 13 SI WA MARIAN 2021-03-03 15:00:00 NR -19.4475 92.4726 PROVISIONAL 1968 1961 P_____________ SI222021 -19.4475 92.4726 52 986 0 105 120 100 90 1003 210 24 8 121
2021057S14101 2021 13 SI WA MARIAN 2021-03-03 18:00:00 NR -19.7000 92.8000 PROVISIONAL 1969 1969 O_____________ tcvitals SI222021 -19.7000 92.8000 54 987 0 105 120 100 90 1003 210 35 9 143
2021057S14101 2021 13 SI WA MARIAN 2021-03-03 21:00:00 NR -20.1424 93.0225 PROVISIONAL 1987 1987 P_____________ SI222021 -20.1424 93.0225 54 986 0 105 120 100 92 1003 210 35 10 157
2021057S14101 2021 13 SI WA MARIAN 2021-03-04 00:00:00 NR -20.6000 93.2000 PROVISIONAL 2014 2014 O_____________ tcvitals SI222021 -20.6000 93.2000 54 986 0 105 120 100 95 1003 210 35 8 153
2021057S14101 2021 13 SI WA MARIAN 2021-03-04 03:00:00 NR -20.8650 93.4077 PROVISIONAL 2026 2019 P_____________ SI222021 -20.8650 93.4077 49 988 0 120 132 107 117 1003 210 50 6 143
2021057S14101 2021 13 SI WA MARIAN 2021-03-04 06:00:00 NR -21.1000 93.6000 PROVISIONAL 2030 2030 O_____________ tcvitals SI222021 -21.1000 93.6000 45 990 0 135 145 115 140 1003 210 65 7 153
2021057S14101 2021 13 SI WA MARIAN 2021-03-04 09:00:00 NR -21.4424 93.7278 PROVISIONAL 2042 2012 P_____________ SI222021 -21.4424 93.7278 45 990 0 135 147 117 140 1003 210 65 8 158
2021057S14101 2021 13 SI WA MARIAN 2021-03-04 12:00:00 NR -21.8000 93.9000 PROVISIONAL 2012 1965 O_____________ tcvitals SI222021 -21.8000 93.9000 45 990 0 135 150 120 140 1004 210 65 8 142
2021057S14101 2021 13 SI WA MARIAN 2021-03-04 15:00:00 NR -22.1003 94.2722 PROVISIONAL 1965 1929 P_____________ SI222021 -22.1003 94.2722 45 991 0 147 120 123 125 1005 210 65 9 133
2021057S14101 2021 13 SI WA MARIAN 2021-03-04 18:00:00 NR -22.4000 94.6000 PROVISIONAL 1929 1923 O_____________ tcvitals SI222021 -22.4000 94.6000 45 993 0 160 90 126 110 1006 210 65 7 153
2021057S14101 2021 13 SI WA MARIAN 2021-03-04 21:00:00 NR -22.7348 94.6231 PROVISIONAL 1923 1916 P_____________ SI222021 -22.7348 94.6231 45 992 0 160 90 150 120 1006 210 65 7 0
2021057S14101 2021 13 SI WA MARIAN 2021-03-05 00:00:00 NR -23.1000 94.6000 PROVISIONAL 1916 1886 O_____________ tcvitals SI222021 -23.1000 94.6000 45 991 0 160 90 175 130 1006 210 65 8 170
2021057S14101 2021 13 SI WA MARIAN 2021-03-05 03:00:00 NR -23.5000 94.7698 PROVISIONAL 1886 1857 P_____________ SI222021 -23.5000 94.7698 42 992 0 160 90 160 125 1006 215 65 9 155
2021057S14101 2021 13 SI WA MARIAN 2021-03-05 06:00:00 NR -23.9000 95.0000 PROVISIONAL 1857 1829 O_____________ tcvitals SI222021 -23.9000 95.0000 39 994 0 160 90 145 120 1006 220 65 9 153
2021057S14101 2021 13 SI WA MARIAN 2021-03-05 09:00:00 NR -24.2725 95.2075 PROVISIONAL 1829 1803 P_____________ SI222021 -24.2725 95.2075 39 993 0 155 90 140 120 1005 212 65 8 152
2021057S14101 2021 13 SI WA MARIAN 2021-03-05 12:00:00 NR -24.6000 95.4000 PROVISIONAL 1803 1780 O_____________ tcvitals SI222021 -24.6000 95.4000 39 993 0 150 90 135 120 1005 205 65 7 151
2021057S14101 2021 13 SI WA MARIAN 2021-03-05 15:00:00 NR -24.8500 95.5652 PROVISIONAL 1780 1765 P_____________ SI222021 -24.8500 95.5652 37 994 0 142 102 132 120 1005 202 65 6 151
2021057S14101 2021 13 SI WA MARIAN 2021-03-05 18:00:00 NR -25.1000 95.7000 PROVISIONAL 1765 1751 O_____________ tcvitals SI222021 -25.1000 95.7000 35 995 0 135 115 130 120 1006 200 65 6 160
2021057S14101 2021 13 SI WA MARIAN 2021-03-05 21:00:00 NR -25.4104 95.7863 PROVISIONAL 1751 1736 P_____________ SI222021 -25.4104 95.7863 35 994 0 115 112 128 105 1005 190 65 7 165
2021057S14101 2021 13 SI WA MARIAN 2021-03-06 00:00:00 NR -25.8000 95.9000 PROVISIONAL 1736 1711 O_____________ tcvitals SI222021 -25.8000 95.9000 35 994 0 95 110 126 90 1004 180 65 9 161
2021057S14101 2021 13 SI WA MARIAN 2021-03-06 03:00:00 NR -26.2854 96.1153 PROVISIONAL 1711 1679 P_____________ SI222021 -26.2854 96.1153 -1 11 157
2021057S14101 2021 13 SI WA MARIAN 2021-03-06 06:00:00 NR -26.8271 96.3874 PROVISIONAL 1679 1648 O_____________ tcvitals SI222021 -26.8271 96.3874 -1 12 155
2021057S14101 2021 13 SI WA MARIAN 2021-03-06 09:00:00 NR -27.3683 96.6742 PROVISIONAL 1648 1629 P_____________ SI222021 -27.3683 96.6742 -1 12 155
2021057S14101 2021 13 SI WA MARIAN 2021-03-06 12:00:00 NR -27.9027 96.9656 PROVISIONAL 1620 O_____________ tcvitals SI222021 -27.9027 96.9656 -1 12 154

IBTrACS Databaseについて

本データベースは、米国NOAAが公開する1842年以降の世界の熱帯低気圧のベストトラックデータアーカイブInternational Best Track Archive for Climate Stewardship (IBTrACS)を、ウェブで閲覧しやすい形式に変換したものです。

最終更新日:2021-11-26